createdAt,value
2022-09-02T00:00:46.264Z,0.00
2022-09-02T00:01:46.331Z,0.00
2022-09-02T00:02:46.251Z,0.00
2022-09-02T00:03:46.150Z,0.00
2022-09-02T00:04:46.112Z,0.00
2022-09-02T00:05:46.078Z,0.00
2022-09-02T00:06:46.052Z,0.00
2022-09-02T00:07:46.005Z,0.00
2022-09-02T00:08:45.966Z,0.00
2022-09-02T00:09:45.930Z,0.00
2022-09-02T00:10:45.891Z,0.00
2022-09-02T00:11:45.851Z,0.00
2022-09-02T00:12:45.832Z,0.00
2022-09-02T00:13:45.779Z,0.00
2022-09-02T00:14:45.743Z,0.00
2022-09-02T00:15:45.714Z,0.00
2022-09-02T00:16:45.707Z,0.00
2022-09-02T00:17:45.633Z,0.00
2022-09-02T00:18:45.968Z,0.00
2022-09-02T00:19:45.554Z,0.00
2022-09-02T00:20:45.519Z,0.00
2022-09-02T00:21:45.481Z,0.00
2022-09-02T00:22:45.444Z,0.00
2022-09-02T00:23:45.408Z,0.00
2022-09-02T00:24:45.378Z,0.00
2022-09-02T00:25:45.332Z,0.00
2022-09-02T00:26:45.295Z,0.00
2022-09-02T00:27:45.258Z,0.00
2022-09-02T00:28:49.229Z,0.00
2022-09-02T00:29:45.207Z,0.00
2022-09-02T00:30:45.147Z,0.00
2022-09-02T00:31:45.188Z,0.00
2022-09-02T00:32:45.072Z,0.00
2022-09-02T00:33:45.034Z,0.00
2022-09-02T00:34:44.998Z,0.00
2022-09-02T00:35:44.974Z,0.00
2022-09-02T00:36:44.923Z,0.00
2022-09-02T00:37:44.888Z,0.00
2022-09-02T00:38:44.852Z,0.00
2022-09-02T00:39:44.813Z,0.00
2022-09-02T00:40:44.863Z,0.00
2022-09-02T00:41:44.737Z,0.00
2022-09-02T00:42:44.700Z,0.00
2022-09-02T00:43:44.661Z,0.00
2022-09-02T00:44:44.627Z,0.00
2022-09-02T00:45:44.610Z,0.00
2022-09-02T00:46:44.565Z,0.00
2022-09-02T00:47:44.516Z,0.00
2022-09-02T00:48:44.477Z,0.00
2022-09-02T00:49:44.449Z,0.00
2022-09-02T00:50:44.405Z,0.00
2022-09-02T00:51:44.365Z,0.00
2022-09-02T00:52:44.329Z,0.00
2022-09-02T00:53:44.291Z,0.00
2022-09-02T00:54:44.279Z,0.00
2022-09-02T00:55:44.216Z,0.00
2022-09-02T00:56:44.181Z,0.00
2022-09-02T00:57:44.144Z,0.00
2022-09-02T00:58:44.109Z,0.00
2022-09-02T00:59:44.067Z,0.00
2022-09-02T01:00:44.135Z,0.00
2022-09-02T01:01:44.122Z,0.00
2022-09-02T01:02:43.961Z,0.00
2022-09-02T01:03:43.928Z,0.00
2022-09-02T01:04:43.886Z,0.00
2022-09-02T01:05:43.992Z,0.00
2022-09-02T01:06:43.823Z,0.00
2022-09-02T01:07:43.770Z,0.00
2022-09-02T01:08:43.734Z,0.00
2022-09-02T01:09:43.699Z,0.00
2022-09-02T01:10:43.661Z,0.00
2022-09-02T01:11:43.619Z,0.00
2022-09-02T01:12:43.596Z,0.00
2022-09-02T01:13:43.557Z,0.00
2022-09-02T01:14:43.525Z,0.00
2022-09-02T01:15:43.472Z,0.00
2022-09-02T01:16:43.547Z,0.00
2022-09-02T01:17:43.410Z,0.00
2022-09-02T01:18:43.362Z,0.00
2022-09-02T01:19:43.324Z,0.00
2022-09-02T01:20:43.291Z,0.00
2022-09-02T01:21:43.285Z,0.00
2022-09-02T01:22:43.213Z,0.00
2022-09-02T01:23:43.176Z,0.00
2022-09-02T01:24:43.140Z,0.00
2022-09-02T01:25:43.101Z,0.00
2022-09-02T01:26:43.065Z,0.00
2022-09-02T01:27:43.035Z,0.00
2022-09-02T01:28:42.990Z,0.00
2022-09-02T01:29:42.952Z,0.00
2022-09-02T01:30:42.918Z,0.00
2022-09-02T01:31:42.970Z,0.00
2022-09-02T01:32:42.841Z,0.00
2022-09-02T01:33:42.815Z,0.00
2022-09-02T01:34:42.778Z,0.00
2022-09-02T01:35:42.729Z,0.00
2022-09-02T01:36:42.698Z,0.00
2022-09-02T01:37:42.655Z,0.00
2022-09-02T01:38:42.621Z,0.00
2022-09-02T01:39:42.590Z,0.00
2022-09-02T01:40:42.681Z,0.00
2022-09-02T01:41:42.505Z,0.00
2022-09-02T01:42:42.474Z,0.00
2022-09-02T01:43:42.430Z,0.00
2022-09-02T01:44:42.395Z,0.00
2022-09-02T01:45:42.373Z,0.00
2022-09-02T01:46:42.379Z,0.00
2022-09-02T01:47:42.283Z,0.00
2022-09-02T01:48:42.245Z,0.00
2022-09-02T01:49:42.207Z,0.00
2022-09-02T01:50:46.844Z,0.00
2022-09-02T01:51:42.147Z,0.00
2022-09-02T01:52:42.096Z,0.00
2022-09-02T01:53:42.069Z,0.00
2022-09-02T01:54:42.023Z,0.00
2022-09-02T01:55:41.983Z,0.00
2022-09-02T01:56:41.949Z,0.00
2022-09-02T01:57:41.910Z,0.00
2022-09-02T01:58:41.875Z,0.00
2022-09-02T01:59:41.849Z,0.00
2022-09-02T02:00:41.854Z,0.00
2022-09-02T02:01:41.818Z,0.00
2022-09-02T02:02:43.347Z,0.00
2022-09-02T02:03:41.688Z,0.00
2022-09-02T02:04:41.651Z,0.00
2022-09-02T02:05:41.619Z,0.00
2022-09-02T02:06:41.589Z,0.00
2022-09-02T02:07:41.537Z,0.00
2022-09-02T02:08:41.502Z,0.00
2022-09-02T02:09:41.464Z,0.00
2022-09-02T02:10:41.429Z,0.00
2022-09-02T02:11:41.389Z,0.00
2022-09-02T02:12:41.366Z,0.00
2022-09-02T02:13:41.318Z,0.00
2022-09-02T02:14:41.280Z,0.00
2022-09-02T02:15:41.252Z,0.00
2022-09-02T02:16:41.315Z,0.00
2022-09-02T02:17:41.171Z,0.00
2022-09-02T02:18:41.143Z,0.00
2022-09-02T02:19:41.089Z,0.00
2022-09-02T02:20:44.740Z,0.00
2022-09-02T02:21:41.024Z,0.00
2022-09-02T02:22:40.983Z,0.00
2022-09-02T02:23:40.940Z,0.00
2022-09-02T02:24:40.927Z,0.00
2022-09-02T02:25:40.868Z,0.00
2022-09-02T02:26:40.831Z,0.00
2022-09-02T02:27:40.790Z,0.00
2022-09-02T02:28:40.753Z,0.00
2022-09-02T02:29:40.717Z,0.00
2022-09-02T02:30:40.698Z,0.00
2022-09-02T02:31:40.666Z,0.00
2022-09-02T02:32:40.608Z,0.00
2022-09-02T02:33:40.569Z,0.00
2022-09-02T02:34:40.532Z,0.00
2022-09-02T02:35:40.516Z,0.00
2022-09-02T02:36:40.457Z,0.00
2022-09-02T02:37:40.419Z,0.00
2022-09-02T02:38:40.382Z,0.00
2022-09-02T02:39:40.343Z,0.00
2022-09-02T02:40:40.354Z,0.00
2022-09-02T02:41:40.282Z,0.00
2022-09-02T02:42:40.232Z,0.00
2022-09-02T02:43:40.194Z,0.00
2022-09-02T02:44:40.157Z,0.00
2022-09-02T02:45:40.119Z,0.00
2022-09-02T02:46:40.135Z,0.00
2022-09-02T02:47:40.056Z,0.00
2022-09-02T02:48:40.011Z,0.00
2022-09-02T02:49:39.970Z,0.00
2022-09-02T02:50:39.934Z,0.00
2022-09-02T02:51:39.897Z,0.00
2022-09-02T02:52:39.861Z,0.00
2022-09-02T02:53:39.837Z,0.00
2022-09-02T02:54:39.785Z,0.00
2022-09-02T02:55:39.746Z,0.00
2022-09-02T02:56:39.733Z,0.00
2022-09-02T02:57:39.675Z,0.00
2022-09-02T02:58:39.636Z,0.00
2022-09-02T02:59:39.607Z,0.00
2022-09-02T03:00:39.562Z,0.00
2022-09-02T03:01:39.614Z,0.00
2022-09-02T03:02:39.630Z,0.00
2022-09-02T03:03:39.445Z,0.00
2022-09-02T03:04:39.429Z,0.00
2022-09-02T03:05:39.386Z,0.00
2022-09-02T03:06:39.337Z,0.00
2022-09-02T03:07:39.296Z,0.00
2022-09-02T03:08:39.271Z,0.00
2022-09-02T03:09:39.226Z,0.00
2022-09-02T03:10:39.183Z,0.00
2022-09-02T03:11:39.146Z,0.00
2022-09-02T03:12:39.109Z,0.00
2022-09-02T03:13:39.072Z,0.00
2022-09-02T03:14:39.046Z,0.00
2022-09-02T03:15:39.073Z,0.00
2022-09-02T03:16:38.958Z,0.00
2022-09-02T03:17:38.924Z,0.00
2022-09-02T03:18:38.884Z,0.00
2022-09-02T03:19:38.848Z,0.00
2022-09-02T03:20:38.823Z,0.00
2022-09-02T03:21:39.444Z,0.00
2022-09-02T03:22:38.733Z,0.00
2022-09-02T03:23:38.698Z,0.00
2022-09-02T03:24:38.661Z,0.00
2022-09-02T03:25:38.635Z,0.00
2022-09-02T03:26:38.583Z,0.00
2022-09-02T03:27:38.547Z,0.00
2022-09-02T03:28:38.509Z,0.00
2022-09-02T03:29:38.471Z,0.00
2022-09-02T03:30:38.451Z,0.00
2022-09-02T03:31:38.456Z,0.00
2022-09-02T03:32:38.358Z,0.00
2022-09-02T03:33:38.322Z,0.00
2022-09-02T03:34:38.282Z,0.00
2022-09-02T03:35:38.245Z,0.00
2022-09-02T03:36:38.223Z,0.00
2022-09-02T03:37:38.172Z,0.00
2022-09-02T03:38:38.131Z,0.00
2022-09-02T03:39:38.099Z,0.00
2022-09-02T03:40:38.110Z,0.00
2022-09-02T03:41:38.021Z,0.00
2022-09-02T03:42:38.008Z,0.00
2022-09-02T03:43:37.947Z,0.00
2022-09-02T03:44:37.905Z,0.00
2022-09-02T03:45:37.901Z,0.00
2022-09-02T03:46:37.830Z,0.00
2022-09-02T03:47:37.791Z,0.00
2022-09-02T03:48:37.787Z,0.00
2022-09-02T03:49:37.718Z,0.00
2022-09-02T03:50:37.680Z,0.00
2022-09-02T03:51:37.643Z,0.00
2022-09-02T03:52:37.604Z,0.00
2022-09-02T03:53:37.571Z,0.00
2022-09-02T03:54:37.539Z,0.00
2022-09-02T03:55:37.493Z,0.00
2022-09-02T03:56:37.452Z,0.00
2022-09-02T03:57:37.420Z,0.00
2022-09-02T03:58:37.390Z,0.00
2022-09-02T03:59:37.353Z,0.00
2022-09-02T04:00:37.301Z,0.00
2022-09-02T04:01:37.291Z,0.00
2022-09-02T04:02:37.378Z,0.00
2022-09-02T04:03:37.189Z,0.00
2022-09-02T04:04:37.150Z,0.00
2022-09-02T04:05:37.127Z,0.00
2022-09-02T04:06:37.084Z,0.00
2022-09-02T04:07:37.041Z,0.00
2022-09-02T04:08:37.001Z,0.00
2022-09-02T04:09:36.963Z,0.00
2022-09-02T04:10:36.925Z,0.00
2022-09-02T04:11:36.898Z,0.00
2022-09-02T04:12:36.847Z,0.00
2022-09-02T04:13:36.830Z,0.00
2022-09-02T04:14:36.775Z,0.00
2022-09-02T04:15:36.802Z,0.00
2022-09-02T04:16:36.770Z,0.00
2022-09-02T04:17:36.669Z,0.00
2022-09-02T04:18:36.623Z,0.00
2022-09-02T04:19:36.583Z,0.00
2022-09-02T04:20:36.546Z,0.00
2022-09-02T04:21:36.507Z,0.00
2022-09-02T04:22:36.468Z,0.00
2022-09-02T04:23:36.442Z,0.00
2022-09-02T04:24:36.392Z,0.00
2022-09-02T04:25:36.355Z,0.00
2022-09-02T04:26:36.316Z,0.00
2022-09-02T04:27:36.279Z,0.00
2022-09-02T04:28:36.256Z,0.00
2022-09-02T04:29:36.204Z,0.00
2022-09-02T04:30:36.165Z,0.00
2022-09-02T04:31:36.162Z,0.00
2022-09-02T04:32:40.468Z,0.00
2022-09-02T04:33:36.051Z,0.00
2022-09-02T04:34:36.023Z,0.00
2022-09-02T04:35:35.975Z,0.00
2022-09-02T04:36:35.936Z,5.63
2022-09-02T04:37:35.899Z,5.63
2022-09-02T04:38:35.861Z,5.63
2022-09-02T04:39:35.822Z,5.63
2022-09-02T04:40:35.867Z,5.63
2022-09-02T04:41:35.753Z,5.63
2022-09-02T04:42:35.710Z,5.63
2022-09-02T04:43:35.672Z,5.63
2022-09-02T04:44:35.631Z,11.25
2022-09-02T04:45:35.598Z,11.25
2022-09-02T04:46:35.595Z,11.25
2022-09-02T04:47:35.518Z,11.25
2022-09-02T04:48:35.480Z,11.25
2022-09-02T04:49:35.441Z,11.25
2022-09-02T04:50:35.404Z,16.88
2022-09-02T04:51:35.364Z,16.88
2022-09-02T04:52:35.340Z,16.88
2022-09-02T04:53:35.732Z,16.88
2022-09-02T04:54:35.254Z,16.88
2022-09-02T04:55:35.211Z,22.50
2022-09-02T04:56:35.173Z,22.50
2022-09-02T04:57:35.136Z,22.50
2022-09-02T04:58:35.108Z,28.13
2022-09-02T04:59:35.065Z,28.13
2022-09-02T05:00:35.020Z,33.75
2022-09-02T05:01:35.028Z,33.75
2022-09-02T05:02:34.993Z,39.38
2022-09-02T05:03:34.909Z,45.00
2022-09-02T05:04:34.882Z,50.63
2022-09-02T05:05:34.837Z,56.25
2022-09-02T05:06:34.794Z,61.88
2022-09-02T05:07:44.009Z,67.50
2022-09-02T05:08:34.716Z,67.50
2022-09-02T05:09:34.678Z,73.13
2022-09-02T05:10:34.655Z,73.13
2022-09-02T05:11:34.604Z,73.13
2022-09-02T05:12:34.570Z,73.13
2022-09-02T05:13:34.528Z,73.13
2022-09-02T05:14:34.489Z,73.13
2022-09-02T05:15:34.527Z,73.13
2022-09-02T05:16:34.415Z,73.13
2022-09-02T05:17:34.379Z,73.13
2022-09-02T05:18:34.336Z,78.75
2022-09-02T05:19:34.368Z,78.75
2022-09-02T05:20:34.275Z,78.75
2022-09-02T05:21:34.244Z,84.38
2022-09-02T05:22:34.188Z,84.38
2022-09-02T05:23:34.148Z,90.00
2022-09-02T05:24:34.111Z,90.00
2022-09-02T05:25:34.073Z,95.63
2022-09-02T05:26:34.051Z,95.63
2022-09-02T05:27:34.019Z,95.63
2022-09-02T05:28:33.958Z,101.25
2022-09-02T05:29:33.923Z,101.25
2022-09-02T05:30:33.883Z,106.88
2022-09-02T05:31:33.894Z,112.50
2022-09-02T05:32:37.595Z,118.13
2022-09-02T05:33:33.785Z,123.75
2022-09-02T05:34:33.735Z,129.38
2022-09-02T05:35:33.696Z,140.63
2022-09-02T05:36:33.659Z,146.25
2022-09-02T05:37:33.632Z,157.50
2022-09-02T05:38:33.588Z,163.13
2022-09-02T05:39:33.542Z,174.38
2022-09-02T05:40:33.530Z,191.25
2022-09-02T05:41:33.481Z,202.50
2022-09-02T05:42:33.434Z,208.13
2022-09-02T05:43:33.407Z,219.38
2022-09-02T05:44:33.369Z,230.63
2022-09-02T05:45:33.320Z,264.38
2022-09-02T05:46:33.329Z,303.75
2022-09-02T05:47:33.248Z,348.75
2022-09-02T05:48:33.207Z,337.50
2022-09-02T05:49:33.184Z,343.13
2022-09-02T05:50:33.134Z,376.88
2022-09-02T05:51:33.098Z,427.50
2022-09-02T05:52:33.058Z,466.88
2022-09-02T05:53:33.037Z,478.13
2022-09-02T05:54:33.001Z,489.38
2022-09-02T05:55:32.949Z,500.63
2022-09-02T05:56:32.914Z,517.50
2022-09-02T05:57:32.876Z,534.38
2022-09-02T05:58:32.839Z,551.25
2022-09-02T05:59:32.804Z,556.88
2022-09-02T06:00:32.778Z,556.88
2022-09-02T06:01:32.792Z,562.50
2022-09-02T06:02:32.722Z,568.13
2022-09-02T06:03:32.663Z,573.75
2022-09-02T06:04:32.624Z,573.75
2022-09-02T06:05:32.601Z,573.75
2022-09-02T06:06:32.556Z,568.13
2022-09-02T06:07:32.524Z,528.75
2022-09-02T06:08:32.485Z,523.13
2022-09-02T06:09:32.452Z,568.13
2022-09-02T06:10:32.416Z,630.00
2022-09-02T06:11:32.396Z,658.13
2022-09-02T06:12:32.348Z,675.00
2022-09-02T06:13:32.317Z,691.88
2022-09-02T06:14:32.279Z,680.63
2022-09-02T06:15:32.322Z,545.63
2022-09-02T06:16:32.210Z,489.38
2022-09-02T06:17:32.206Z,590.63
2022-09-02T06:18:32.142Z,630.00
2022-09-02T06:19:32.110Z,585.00
2022-09-02T06:20:32.073Z,607.50
2022-09-02T06:21:32.039Z,658.13
2022-09-02T06:22:32.006Z,697.50
2022-09-02T06:23:31.986Z,680.63
2022-09-02T06:24:31.933Z,736.88
2022-09-02T06:25:31.906Z,804.38
2022-09-02T06:26:31.873Z,826.88
2022-09-02T06:27:31.837Z,821.25
2022-09-02T06:28:31.800Z,810.00
2022-09-02T06:29:31.783Z,793.13
2022-09-02T06:30:31.735Z,810.00
2022-09-02T06:31:34.423Z,855.00
2022-09-02T06:32:31.664Z,770.63
2022-09-02T06:33:31.632Z,601.88
2022-09-02T06:34:31.598Z,573.75
2022-09-02T06:35:31.578Z,579.38
2022-09-02T06:36:31.598Z,579.38
2022-09-02T06:37:31.498Z,573.75
2022-09-02T06:38:31.465Z,568.13
2022-09-02T06:39:31.434Z,568.13
2022-09-02T06:40:31.418Z,573.75
2022-09-02T06:41:31.365Z,618.75
2022-09-02T06:42:31.329Z,742.50
2022-09-02T06:43:41.334Z,590.63
2022-09-02T06:44:32.560Z,585.00
2022-09-02T06:45:31.230Z,579.38
2022-09-02T06:46:31.272Z,568.13
2022-09-02T06:47:31.160Z,573.75
2022-09-02T06:48:31.129Z,590.63
2022-09-02T06:49:31.100Z,635.63
2022-09-02T06:50:31.061Z,736.88
2022-09-02T06:51:31.027Z,635.63
2022-09-02T06:52:31.015Z,652.50
2022-09-02T06:53:30.957Z,781.88
2022-09-02T06:54:30.928Z,1046.25
2022-09-02T06:55:30.891Z,860.63
2022-09-02T06:56:30.860Z,793.13
2022-09-02T06:57:33.858Z,697.50
2022-09-02T06:58:30.829Z,641.25
2022-09-02T06:59:30.757Z,888.75
2022-09-02T07:00:31.080Z,731.25
2022-09-02T07:01:30.746Z,798.75
2022-09-02T07:02:30.651Z,585.00
2022-09-02T07:03:30.616Z,540.00
2022-09-02T07:04:30.582Z,517.50
2022-09-02T07:05:30.560Z,573.75
2022-09-02T07:06:30.514Z,675.00
2022-09-02T07:07:30.479Z,770.63
2022-09-02T07:08:30.464Z,905.63
2022-09-02T07:09:30.413Z,691.88
2022-09-02T07:10:30.386Z,551.25
2022-09-02T07:11:30.343Z,568.13
2022-09-02T07:12:30.307Z,675.00
2022-09-02T07:13:30.276Z,669.38
2022-09-02T07:14:30.270Z,759.38
2022-09-02T07:15:30.204Z,725.63
2022-09-02T07:16:30.218Z,714.38
2022-09-02T07:17:30.137Z,658.13
2022-09-02T07:18:30.100Z,1074.38
2022-09-02T07:19:30.067Z,1428.75
2022-09-02T07:20:30.034Z,1063.13
2022-09-02T07:21:29.998Z,1130.63
2022-09-02T07:22:29.976Z,1963.13
2022-09-02T07:23:29.930Z,933.75
2022-09-02T07:24:29.895Z,1231.88
2022-09-02T07:25:29.893Z,770.63
2022-09-02T07:26:29.828Z,748.13
2022-09-02T07:27:29.796Z,753.75
2022-09-02T07:28:29.787Z,1181.25
2022-09-02T07:29:29.727Z,787.50
2022-09-02T07:30:29.713Z,804.38
2022-09-02T07:31:29.659Z,871.88
2022-09-02T07:32:29.625Z,1198.13
2022-09-02T07:33:29.596Z,753.75
2022-09-02T07:34:29.572Z,776.25
2022-09-02T07:35:29.557Z,888.75
2022-09-02T07:36:29.491Z,1186.88
2022-09-02T07:37:29.454Z,1434.38
2022-09-02T07:38:29.428Z,1417.50
2022-09-02T07:39:29.389Z,1389.38
2022-09-02T07:40:29.426Z,1378.13
2022-09-02T07:41:29.321Z,1355.63
2022-09-02T07:42:29.292Z,1338.75
2022-09-02T07:43:29.258Z,1327.50
2022-09-02T07:44:29.228Z,1338.75
2022-09-02T07:45:29.213Z,1316.25
2022-09-02T07:46:29.212Z,1265.63
2022-09-02T07:47:29.122Z,1260.00
2022-09-02T07:48:29.093Z,1248.75
2022-09-02T07:49:29.075Z,1243.13
2022-09-02T07:50:29.027Z,1231.88
2022-09-02T07:51:30.824Z,1248.75
2022-09-02T07:52:28.962Z,1288.13
2022-09-02T07:53:28.930Z,1293.75
2022-09-02T07:54:28.897Z,1293.75
2022-09-02T07:55:28.861Z,1271.25
2022-09-02T07:56:28.832Z,590.63
2022-09-02T07:57:28.816Z,545.63
2022-09-02T07:58:28.767Z,545.63
2022-09-02T07:59:28.738Z,562.50
2022-09-02T08:00:28.699Z,523.13
2022-09-02T08:01:28.765Z,528.75
2022-09-02T08:02:28.660Z,551.25
2022-09-02T08:03:28.611Z,585.00
2022-09-02T08:04:28.569Z,613.13
2022-09-02T08:05:28.537Z,686.25
2022-09-02T08:06:34.365Z,703.13
2022-09-02T08:07:28.472Z,759.38
2022-09-02T08:08:28.436Z,815.63
2022-09-02T08:09:28.424Z,871.88
2022-09-02T08:10:28.373Z,1310.63
2022-09-02T08:11:28.336Z,1608.75
2022-09-02T08:12:28.303Z,1451.25
2022-09-02T08:13:28.392Z,1676.25
2022-09-02T08:14:28.274Z,1676.25
2022-09-02T08:15:28.216Z,1698.75
2022-09-02T08:16:28.232Z,1659.38
2022-09-02T08:17:28.135Z,1665.00
2022-09-02T08:18:28.102Z,1681.88
2022-09-02T08:19:28.068Z,1665.00
2022-09-02T08:20:28.051Z,1631.25
2022-09-02T08:21:28.006Z,1603.13
2022-09-02T08:22:28.009Z,1569.38
2022-09-02T08:23:37.202Z,1546.88
2022-09-02T08:24:27.906Z,1535.63
2022-09-02T08:25:27.870Z,1524.38
2022-09-02T08:26:27.852Z,1507.50
2022-09-02T08:27:27.809Z,1530.00
2022-09-02T08:28:27.789Z,1541.25
2022-09-02T08:29:27.742Z,1524.38
2022-09-02T08:30:27.711Z,1535.63
2022-09-02T08:31:27.731Z,1541.25
2022-09-02T08:32:27.650Z,1524.38
2022-09-02T08:33:27.613Z,1591.88
2022-09-02T08:34:27.602Z,1541.25
2022-09-02T08:35:27.549Z,1175.63
2022-09-02T08:36:27.520Z,1659.38
2022-09-02T08:37:27.495Z,1698.75
2022-09-02T08:38:27.456Z,1687.50
2022-09-02T08:39:27.428Z,1170.00
2022-09-02T08:40:27.442Z,1237.50
2022-09-02T08:41:27.359Z,1063.13
2022-09-02T08:42:27.333Z,1614.38
2022-09-02T08:43:27.298Z,1974.38
2022-09-02T08:44:27.266Z,1923.75
2022-09-02T08:45:27.286Z,990.00
2022-09-02T08:46:27.237Z,939.38
2022-09-02T08:47:27.169Z,1293.75
2022-09-02T08:48:27.179Z,1822.50
2022-09-02T08:49:27.106Z,2025.00
2022-09-02T08:50:27.084Z,2283.75
2022-09-02T08:51:27.051Z,1260.00
2022-09-02T08:52:27.010Z,2070.00
2022-09-02T08:53:26.986Z,2227.50
2022-09-02T08:54:26.962Z,1710.00
2022-09-02T08:55:26.915Z,2340.00
2022-09-02T08:56:26.886Z,2441.25
2022-09-02T08:57:26.854Z,2013.75
2022-09-02T08:58:26.823Z,1777.50
2022-09-02T08:59:26.873Z,1119.38
2022-09-02T09:00:26.776Z,2053.13
2022-09-02T09:01:26.759Z,1912.50
2022-09-02T09:02:26.737Z,1749.38
2022-09-02T09:03:26.663Z,2548.13
2022-09-02T09:04:26.637Z,2503.13
2022-09-02T09:05:26.601Z,2581.88
2022-09-02T09:06:26.594Z,2576.25
2022-09-02T09:07:26.568Z,2666.25
2022-09-02T09:08:26.590Z,2671.88
2022-09-02T09:09:26.473Z,2233.13
2022-09-02T09:10:26.446Z,2733.75
2022-09-02T09:11:26.410Z,2750.63
2022-09-02T09:12:26.392Z,2823.75
2022-09-02T09:13:26.356Z,2278.13
2022-09-02T09:14:26.321Z,2379.38
2022-09-02T09:15:26.285Z,2176.88
2022-09-02T09:16:26.293Z,2930.63
2022-09-02T09:17:28.033Z,2002.50
2022-09-02T09:18:26.196Z,2295.00
2022-09-02T09:19:26.162Z,2711.25
2022-09-02T09:20:26.157Z,2137.50
2022-09-02T09:22:26.084Z,2925.00
2022-09-02T09:23:26.355Z,2998.13
2022-09-02T09:24:26.009Z,2998.13
2022-09-02T09:25:25.978Z,2975.63
2022-09-02T09:26:25.947Z,3020.63
2022-09-02T09:27:25.933Z,2981.25
2022-09-02T09:28:25.886Z,3031.88
2022-09-02T09:29:25.857Z,3076.88
2022-09-02T09:30:25.860Z,3082.50
2022-09-02T09:31:25.819Z,3099.38
2022-09-02T09:32:25.764Z,3127.50
2022-09-02T09:33:25.747Z,3133.13
2022-09-02T09:34:25.705Z,3144.38
2022-09-02T09:35:25.670Z,3105.00
2022-09-02T09:36:25.643Z,3161.25
2022-09-02T09:37:25.613Z,3088.13
2022-09-02T09:38:25.586Z,3116.25
2022-09-02T09:39:25.597Z,3189.38
2022-09-02T09:40:25.558Z,3245.63
2022-09-02T09:41:25.492Z,3240.00
2022-09-02T09:42:25.462Z,3318.75
2022-09-02T09:43:25.545Z,3352.50
2022-09-02T09:44:25.402Z,3301.88
2022-09-02T09:45:25.421Z,3296.25
2022-09-02T09:46:25.344Z,3296.25
2022-09-02T09:47:25.311Z,3324.38
2022-09-02T09:48:25.283Z,3279.38
2022-09-02T09:49:25.253Z,3313.13
2022-09-02T09:50:25.231Z,3313.13
2022-09-02T09:51:25.189Z,3285.00
2022-09-02T09:52:25.163Z,3301.88
2022-09-02T09:53:25.128Z,3341.25
2022-09-02T09:54:25.105Z,3375.00
2022-09-02T09:55:25.583Z,3403.13
2022-09-02T09:56:25.056Z,3476.25
2022-09-02T09:57:25.021Z,3515.63
2022-09-02T09:58:24.986Z,2514.38
2022-09-02T09:59:24.950Z,3549.38
2022-09-02T10:00:24.925Z,3661.88
2022-09-02T10:01:25.014Z,2683.13
2022-09-02T10:02:24.988Z,3020.63
2022-09-02T10:03:24.913Z,2593.13
2022-09-02T10:04:41.690Z,2998.13
2022-09-02T10:05:24.766Z,3487.50
2022-09-02T10:06:24.753Z,3498.75
2022-09-02T10:07:24.708Z,3481.88
2022-09-02T10:08:24.691Z,3470.63
2022-09-02T10:09:24.651Z,3273.75
2022-09-02T10:10:24.618Z,3442.50
2022-09-02T10:11:24.583Z,3363.75
2022-09-02T10:12:24.556Z,3386.25
2022-09-02T10:13:24.523Z,3386.25
2022-09-02T10:14:26.537Z,3369.38
2022-09-02T10:15:24.460Z,3408.75
2022-09-02T10:16:24.941Z,3397.50
2022-09-02T10:17:24.400Z,1783.13
2022-09-02T10:18:24.438Z,3403.13
2022-09-02T10:19:24.351Z,3459.38
2022-09-02T10:20:24.311Z,3470.63
2022-09-02T10:21:24.333Z,1659.38
2022-09-02T10:22:24.251Z,3605.63
2022-09-02T10:23:24.216Z,2340.00
2022-09-02T10:24:24.190Z,3346.88
2022-09-02T10:25:25.126Z,3279.38
2022-09-02T10:27:24.092Z,1935.00
2022-09-02T10:28:24.242Z,1321.88
2022-09-02T10:29:24.033Z,905.63
2022-09-02T10:30:24.000Z,928.13
2022-09-02T10:31:24.012Z,922.50
2022-09-02T10:32:24.683Z,928.13
2022-09-02T10:33:24.295Z,922.50
2022-09-02T10:34:23.877Z,894.38
2022-09-02T10:35:23.845Z,855.00
2022-09-02T10:36:25.494Z,849.38
2022-09-02T10:37:24.760Z,860.63
2022-09-02T10:38:23.868Z,905.63
2022-09-02T10:39:24.015Z,961.88
2022-09-02T10:40:25.355Z,1023.75
2022-09-02T10:41:23.848Z,1243.13
2022-09-02T10:42:23.884Z,3926.25
2022-09-02T10:43:23.769Z,3931.88
2022-09-02T10:44:23.690Z,4027.50
2022-09-02T10:45:26.100Z,3982.50
2022-09-02T10:46:24.205Z,3420.00
2022-09-02T10:47:30.057Z,2255.63
2022-09-02T10:48:24.623Z,2615.63
2022-09-02T10:49:23.530Z,2750.63
2022-09-02T10:50:23.396Z,1980.00
2022-09-02T10:51:23.567Z,2621.25
2022-09-02T10:52:23.311Z,1918.13
2022-09-02T10:53:23.649Z,3802.50
2022-09-02T10:54:23.671Z,2593.13
2022-09-02T10:55:23.232Z,2548.13
2022-09-02T10:56:23.206Z,3048.75
2022-09-02T10:57:23.189Z,2868.75
2022-09-02T10:58:23.580Z,3526.88
2022-09-02T10:59:23.083Z,2570.63
2022-09-02T11:00:24.239Z,3690.00
2022-09-02T11:01:23.257Z,3391.88
2022-09-02T11:02:23.181Z,3757.50
2022-09-02T11:03:23.540Z,900.00
2022-09-02T11:04:25.382Z,855.00
2022-09-02T11:05:22.920Z,849.38
2022-09-02T11:06:23.068Z,843.75
2022-09-02T11:07:22.839Z,866.25
2022-09-02T11:08:22.990Z,888.75
2022-09-02T11:09:23.004Z,928.13
2022-09-02T11:10:22.755Z,961.88
2022-09-02T11:11:22.867Z,1085.63
2022-09-02T11:12:22.680Z,1490.63
2022-09-02T11:13:23.740Z,2379.38
2022-09-02T11:14:22.658Z,1057.50
2022-09-02T11:15:22.597Z,1057.50
2022-09-02T11:16:22.979Z,1057.50
2022-09-02T11:17:22.552Z,1051.88
2022-09-02T11:18:22.491Z,1001.25
2022-09-02T11:19:22.525Z,1001.25
2022-09-02T11:20:22.443Z,1046.25
2022-09-02T11:21:22.492Z,911.25
2022-09-02T11:22:25.523Z,916.88
2022-09-02T11:23:22.534Z,928.13
2022-09-02T11:24:22.299Z,984.38
2022-09-02T11:25:22.478Z,990.00
2022-09-02T11:26:22.339Z,995.63
2022-09-02T11:27:32.435Z,995.63
2022-09-02T11:28:22.876Z,990.00
2022-09-02T11:29:22.586Z,984.38
2022-09-02T11:30:22.410Z,1001.25
2022-09-02T11:31:22.539Z,1023.75
2022-09-02T11:32:22.776Z,1029.38
2022-09-02T11:33:22.105Z,1040.63
2022-09-02T11:34:22.109Z,984.38
2022-09-02T11:35:22.082Z,961.88
2022-09-02T11:36:21.984Z,961.88
2022-09-02T11:37:21.891Z,933.75
2022-09-02T11:38:22.503Z,939.38
2022-09-02T11:39:35.977Z,973.13
2022-09-02T11:40:34.226Z,990.00
2022-09-02T11:41:37.914Z,967.50
2022-09-02T11:42:21.986Z,922.50
2022-09-02T11:43:22.246Z,900.00
2022-09-02T11:44:21.715Z,900.00
2022-09-02T11:45:22.662Z,916.88
2022-09-02T11:46:22.225Z,916.88
2022-09-02T11:47:21.776Z,945.00
2022-09-02T11:48:21.662Z,1248.75
2022-09-02T11:49:27.836Z,3678.75
2022-09-02T11:50:22.398Z,1316.25
2022-09-02T11:51:23.069Z,1147.50
2022-09-02T11:53:21.628Z,894.38
2022-09-02T11:54:21.809Z,838.13
2022-09-02T11:55:21.544Z,815.63
2022-09-02T11:56:21.411Z,849.38
2022-09-02T11:57:21.316Z,877.50
2022-09-02T11:58:21.271Z,945.00
2022-09-02T11:59:21.262Z,3228.75
2022-09-02T12:00:22.166Z,967.50
2022-09-02T12:01:25.775Z,945.00
2022-09-02T12:02:21.219Z,978.75
2022-09-02T12:03:40.323Z,928.13
2022-09-02T12:05:21.308Z,849.38
2022-09-02T12:06:22.897Z,877.50
2022-09-02T12:07:26.407Z,1085.63
2022-09-02T12:08:22.928Z,1400.63
2022-09-02T12:09:22.522Z,2323.13
2022-09-02T12:10:21.646Z,2998.13
2022-09-02T12:11:20.990Z,2986.88
2022-09-02T12:12:21.507Z,3031.88
2022-09-02T12:13:20.881Z,2925.00
2022-09-02T12:14:21.845Z,2930.63
2022-09-02T12:15:21.184Z,2593.13
2022-09-02T12:16:21.002Z,2463.75
2022-09-02T12:17:20.785Z,1310.63
2022-09-02T12:18:23.376Z,759.38
2022-09-02T12:19:20.823Z,736.88
2022-09-02T12:20:20.485Z,742.50
2022-09-02T12:21:23.195Z,714.38
2022-09-02T12:22:20.757Z,697.50
2022-09-02T12:23:20.579Z,731.25
2022-09-02T12:24:20.537Z,787.50
2022-09-02T12:25:21.374Z,883.13
2022-09-02T12:26:20.484Z,1085.63
2022-09-02T12:27:21.298Z,1338.75
2022-09-02T12:28:21.790Z,2053.13
2022-09-02T12:29:21.656Z,1856.25
2022-09-02T12:30:20.555Z,961.88
2022-09-02T12:31:22.688Z,916.88
2022-09-02T12:32:20.280Z,866.25
2022-09-02T12:33:22.744Z,945.00
2022-09-02T12:34:20.579Z,973.13
2022-09-02T12:35:20.144Z,855.00
2022-09-02T12:36:20.159Z,810.00
2022-09-02T12:37:20.099Z,1434.38
2022-09-02T12:38:20.169Z,871.88
2022-09-02T12:39:19.897Z,855.00
2022-09-02T12:40:20.823Z,939.38
2022-09-02T12:41:20.384Z,922.50
2022-09-02T12:42:20.048Z,900.00
2022-09-02T12:43:19.803Z,990.00
2022-09-02T12:44:21.667Z,1333.13